createdAt,value
2023-03-12T00:01:15.405Z,34.89
2023-03-12T00:03:43.586Z,34.82
2023-03-12T00:06:11.865Z,34.58
2023-03-12T00:08:40.203Z,34.59
2023-03-12T00:11:09.873Z,34.66
2023-03-12T00:13:38.443Z,34.76
2023-03-12T00:16:11.087Z,34.53
2023-03-12T00:18:39.338Z,34.64
2023-03-12T00:21:08.123Z,34.28
2023-03-12T00:23:36.985Z,34.64
2023-03-12T00:26:07.020Z,34.35
2023-03-12T00:28:36.011Z,34.34
2023-03-12T00:31:15.862Z,33.78
2023-03-12T00:33:43.896Z,33.93
2023-03-12T00:36:11.824Z,33.97
2023-03-12T00:38:39.856Z,33.93
2023-03-12T00:41:07.955Z,33.86
2023-03-12T00:43:38.460Z,33.84
2023-03-12T00:46:06.637Z,33.66
2023-03-12T00:48:35.953Z,33.69
2023-03-12T00:51:03.932Z,33.66
2023-03-12T00:53:31.924Z,33.75
2023-03-12T00:55:59.944Z,33.61
2023-03-12T00:58:27.904Z,33.44
2023-03-12T01:00:55.902Z,33.37
2023-03-12T01:03:26.079Z,33.50
2023-03-12T01:05:55.647Z,33.39
2023-03-12T01:08:24.198Z,33.25
2023-03-12T01:10:52.695Z,33.18
2023-03-12T01:13:24.080Z,33.22
2023-03-12T01:15:52.097Z,33.05
2023-03-12T01:18:20.271Z,33.04
2023-03-12T01:20:48.285Z,33.00
2023-03-12T01:23:17.642Z,32.89
2023-03-12T01:25:47.512Z,32.99
2023-03-12T01:28:15.546Z,32.81
2023-03-12T01:30:43.501Z,32.69
2023-03-12T01:33:11.481Z,32.88
2023-03-12T01:35:40.490Z,32.69
2023-03-12T01:38:09.840Z,32.63
2023-03-12T01:40:39.561Z,32.83
2023-03-12T01:43:27.128Z,32.76
2023-03-12T01:46:27.661Z,33.37
2023-03-12T01:49:00.490Z,33.68
2023-03-12T01:51:34.929Z,34.21
2023-03-12T01:54:10.456Z,34.32
2023-03-12T01:56:40.290Z,34.08
2023-03-12T01:59:14.890Z,34.17
2023-03-12T02:01:44.375Z,33.90
2023-03-12T02:04:13.971Z,33.78
2023-03-12T02:06:49.380Z,33.69
2023-03-12T02:09:20.503Z,33.92
2023-03-12T02:11:50.276Z,33.67
2023-03-12T02:14:18.476Z,33.51
2023-03-12T02:16:46.602Z,33.45
2023-03-12T02:19:23.454Z,33.48
2023-03-12T02:21:51.910Z,33.32
2023-03-12T02:24:31.958Z,33.36
2023-03-12T02:27:02.431Z,33.07
2023-03-12T02:29:33.071Z,33.11
2023-03-12T02:32:04.362Z,33.27
2023-03-12T02:34:32.437Z,32.98
2023-03-12T02:37:00.413Z,33.02
2023-03-12T02:39:28.787Z,32.99
2023-03-12T02:41:59.636Z,32.96
2023-03-12T02:44:31.919Z,32.77
2023-03-12T02:47:00.462Z,32.72
2023-03-12T02:49:31.005Z,32.84
2023-03-12T02:51:59.202Z,32.72
2023-03-12T02:54:27.456Z,32.65
2023-03-12T02:56:55.400Z,32.47
2023-03-12T02:59:26.034Z,32.55
2023-03-12T03:01:58.135Z,32.69
2023-03-12T03:04:27.955Z,32.56
2023-03-12T03:06:56.128Z,32.68
2023-03-12T03:09:26.544Z,32.55
2023-03-12T03:11:54.685Z,32.52
2023-03-12T03:14:25.825Z,32.62
2023-03-12T03:16:55.171Z,32.39
2023-03-12T03:19:23.151Z,32.54
2023-03-12T03:21:51.135Z,32.37
2023-03-12T03:24:19.083Z,32.41
2023-03-12T03:26:47.031Z,32.50
2023-03-12T03:29:15.284Z,32.28
2023-03-12T03:31:43.182Z,32.22
2023-03-12T03:34:12.604Z,32.25
2023-03-12T03:36:43.108Z,32.16
2023-03-12T03:39:11.031Z,32.07
2023-03-12T03:41:41.013Z,32.07
2023-03-12T03:44:09.018Z,32.03
2023-03-12T03:46:37.022Z,31.97
2023-03-12T03:49:05.053Z,32.05
2023-03-12T03:51:34.566Z,31.89
2023-03-12T03:54:02.619Z,31.96
2023-03-12T03:56:30.671Z,31.91
2023-03-12T03:58:59.501Z,31.78
2023-03-12T04:01:27.616Z,31.79
2023-03-12T04:03:55.602Z,31.78
2023-03-12T04:06:23.574Z,31.78
2023-03-12T04:08:52.880Z,31.73
2023-03-12T04:11:22.874Z,31.61
2023-03-12T04:13:51.700Z,31.55
2023-03-12T04:16:20.128Z,31.75
2023-03-12T04:18:48.111Z,31.67
2023-03-12T04:21:16.334Z,31.75
2023-03-12T04:23:47.123Z,31.78
2023-03-12T04:26:17.449Z,31.72
2023-03-12T04:28:45.705Z,31.67
2023-03-12T04:31:16.479Z,31.65
2023-03-12T04:33:47.182Z,31.61
2023-03-12T04:36:16.275Z,31.43
2023-03-12T04:38:47.200Z,31.51
2023-03-12T04:41:18.011Z,31.73
2023-03-12T04:43:46.135Z,31.41
2023-03-12T04:46:14.241Z,31.55
2023-03-12T04:48:42.297Z,31.57
2023-03-12T04:51:10.288Z,31.49
2023-03-12T04:53:38.354Z,31.55
2023-03-12T04:56:06.949Z,31.49
2023-03-12T04:58:37.004Z,31.49
2023-03-12T05:01:05.621Z,31.43
2023-03-12T05:03:33.897Z,31.52
2023-03-12T05:06:01.922Z,31.57
2023-03-12T05:08:29.915Z,31.38
2023-03-12T05:10:58.210Z,31.38
2023-03-12T05:13:26.141Z,31.43
2023-03-12T05:15:55.477Z,31.57
2023-03-12T05:18:26.515Z,31.37
2023-03-12T05:21:00.247Z,31.30
2023-03-12T05:23:28.523Z,31.34
2023-03-12T05:25:59.083Z,31.28
2023-03-12T05:28:30.582Z,31.37
2023-03-12T05:31:01.357Z,31.33
2023-03-12T05:33:30.217Z,31.55
2023-03-12T05:35:58.300Z,31.32
2023-03-12T05:38:26.382Z,31.42
2023-03-12T05:40:55.869Z,31.37
2023-03-12T05:43:24.270Z,31.58
2023-03-12T05:45:52.507Z,31.40
2023-03-12T05:48:22.018Z,31.42
2023-03-12T05:50:49.950Z,31.35
2023-03-12T05:53:17.867Z,31.40
2023-03-12T05:55:46.030Z,31.44
2023-03-12T05:58:14.172Z,31.51
2023-03-12T06:00:44.411Z,31.27
2023-03-12T06:03:13.261Z,31.28
2023-03-12T06:05:42.623Z,31.34
2023-03-12T06:08:10.696Z,31.37
2023-03-12T06:10:40.041Z,31.32
2023-03-12T06:13:08.866Z,31.39
2023-03-12T06:15:36.888Z,31.36
2023-03-12T06:18:04.938Z,31.43
2023-03-12T06:20:35.695Z,31.41
2023-03-12T06:23:07.667Z,31.37
2023-03-12T06:25:35.816Z,31.29
2023-03-12T06:28:03.733Z,31.36
2023-03-12T06:30:32.095Z,31.45
2023-03-12T06:33:00.173Z,31.36
2023-03-12T06:35:28.222Z,31.35
2023-03-12T06:37:56.198Z,31.48
2023-03-12T06:40:25.484Z,31.42
2023-03-12T06:42:53.512Z,31.32
2023-03-12T06:45:21.444Z,31.50
2023-03-12T06:47:49.371Z,31.45
2023-03-12T06:50:17.731Z,31.54
2023-03-12T06:52:45.704Z,31.52
2023-03-12T06:55:15.828Z,31.49
2023-03-12T06:57:45.184Z,31.33
2023-03-12T07:00:14.376Z,31.44
2023-03-12T07:02:42.311Z,31.59
2023-03-12T07:05:11.246Z,31.59
2023-03-12T07:07:39.915Z,31.47
2023-03-12T07:10:08.640Z,31.63
2023-03-12T07:12:39.319Z,31.61
2023-03-12T07:15:09.845Z,31.66
2023-03-12T07:17:37.827Z,31.60
2023-03-12T07:20:07.328Z,31.57
2023-03-12T07:22:35.341Z,31.73
2023-03-12T07:25:07.020Z,31.63
2023-03-12T07:27:35.026Z,31.73
2023-03-12T07:30:02.975Z,31.77
2023-03-12T07:32:33.603Z,31.76
2023-03-12T07:35:01.811Z,31.86
2023-03-12T07:37:29.726Z,31.84
2023-03-12T07:39:57.768Z,31.74
2023-03-12T07:42:25.806Z,31.79
2023-03-12T07:44:53.809Z,31.72
2023-03-12T07:47:24.446Z,31.89
2023-03-12T07:49:54.423Z,32.08
2023-03-12T07:52:23.655Z,31.89
2023-03-12T07:54:52.742Z,31.96
2023-03-12T07:57:21.043Z,32.02
2023-03-12T07:59:50.122Z,31.96
2023-03-12T08:02:19.323Z,31.85
2023-03-12T08:04:47.457Z,32.03
2023-03-12T08:07:16.975Z,32.02
2023-03-12T08:09:45.587Z,31.92
2023-03-12T08:12:13.691Z,32.10
2023-03-12T08:14:42.437Z,32.10
2023-03-12T08:17:10.658Z,32.21
2023-03-12T08:19:38.662Z,32.19
2023-03-12T08:22:10.018Z,32.29
2023-03-12T08:24:39.407Z,32.26
2023-03-12T08:27:07.461Z,32.26
2023-03-12T08:29:38.337Z,32.37
2023-03-12T08:32:07.156Z,32.37
2023-03-12T08:34:35.772Z,32.35
2023-03-12T08:37:04.530Z,32.44
2023-03-12T08:39:32.697Z,33.32
2023-03-12T08:42:02.521Z,33.20
2023-03-12T08:44:33.214Z,33.41
2023-03-12T08:47:01.389Z,33.66
2023-03-12T08:49:29.379Z,33.82
2023-03-12T08:51:57.339Z,34.28
2023-03-12T08:54:25.322Z,34.18
2023-03-12T08:56:54.032Z,34.16
2023-03-12T08:59:23.573Z,34.16
2023-03-12T09:01:52.246Z,34.18
2023-03-12T09:04:20.310Z,34.09
2023-03-12T09:06:48.479Z,34.28
2023-03-12T09:09:16.509Z,34.56
2023-03-12T09:11:44.566Z,34.54
2023-03-12T09:14:57.469Z,34.87
2023-03-12T09:17:02.613Z,34.98
2023-03-12T09:19:30.832Z,35.05
2023-03-12T09:22:01.324Z,35.09
2023-03-12T09:24:29.288Z,35.13
2023-03-12T09:26:57.250Z,35.16
2023-03-12T09:29:25.759Z,35.23
2023-03-12T09:31:53.705Z,35.25
2023-03-12T09:34:23.137Z,35.51
2023-03-12T09:36:51.110Z,35.51
2023-03-12T09:39:20.837Z,35.57
2023-03-12T09:41:50.125Z,35.93
2023-03-12T09:44:25.148Z,36.24
2023-03-12T09:46:57.187Z,36.10
2023-03-12T09:49:35.284Z,36.10
2023-03-12T09:52:09.309Z,36.22
2023-03-12T09:54:44.749Z,36.03
2023-03-12T09:57:21.447Z,36.15
2023-03-12T09:59:49.501Z,36.31
2023-03-12T10:02:43.639Z,36.32
2023-03-12T10:05:19.248Z,36.52
2023-03-12T10:07:53.304Z,36.57
2023-03-12T10:10:45.273Z,36.75
2023-03-12T10:13:30.160Z,36.87
2023-03-12T10:16:10.621Z,36.66
2023-03-12T10:18:56.427Z,37.00
2023-03-12T10:21:34.171Z,37.14
2023-03-12T10:24:28.908Z,37.26
2023-03-12T10:26:59.336Z,37.34
2023-03-12T10:29:30.912Z,37.43
2023-03-12T10:32:01.805Z,37.68
2023-03-12T10:34:34.363Z,37.50
2023-03-12T10:37:13.658Z,37.64
2023-03-12T10:39:42.182Z,37.59
2023-03-12T10:42:17.190Z,37.53
2023-03-12T10:44:47.049Z,37.79
2023-03-12T10:47:28.265Z,37.89
2023-03-12T10:49:56.685Z,38.02
2023-03-12T10:52:25.951Z,37.84
2023-03-12T10:54:54.552Z,37.96
2023-03-12T10:57:40.651Z,38.08
2023-03-12T11:00:11.975Z,38.40
2023-03-12T11:02:42.931Z,38.41
2023-03-12T11:05:22.722Z,38.59
2023-03-12T11:07:52.354Z,38.59
2023-03-12T11:10:24.066Z,38.72
2023-03-12T11:12:58.445Z,38.71
2023-03-12T11:15:28.877Z,38.86
2023-03-12T11:18:20.675Z,38.99
2023-03-12T11:20:50.157Z,39.19
2023-03-12T11:23:23.112Z,38.88
2023-03-12T11:25:57.327Z,38.93
2023-03-12T11:28:30.881Z,38.86
2023-03-12T11:31:00.312Z,38.55
2023-03-12T11:33:28.540Z,38.66
2023-03-12T11:36:09.912Z,38.80
2023-03-12T11:38:44.503Z,38.59
2023-03-12T11:41:26.108Z,38.73
2023-03-12T11:44:07.784Z,38.73
2023-03-12T11:46:50.856Z,38.66
2023-03-12T11:49:36.060Z,38.57
2023-03-12T11:52:09.951Z,38.73
2023-03-12T11:54:58.940Z,38.57
2023-03-12T11:57:39.191Z,38.63
2023-03-12T12:00:13.685Z,38.67
2023-03-12T12:03:03.068Z,38.85
2023-03-12T12:05:43.051Z,38.71
2023-03-12T12:08:34.582Z,38.62
2023-03-12T12:11:11.463Z,38.77
2023-03-12T12:13:46.624Z,38.63
2023-03-12T12:16:29.902Z,38.71
2023-03-12T12:19:07.962Z,38.83
2023-03-12T12:21:57.735Z,38.79
2023-03-12T12:24:39.687Z,38.82
2023-03-12T12:27:19.893Z,38.70
2023-03-12T12:30:05.636Z,38.90
2023-03-12T12:32:49.402Z,38.75
2023-03-12T12:35:28.326Z,38.86
2023-03-12T12:38:01.011Z,38.86
2023-03-12T12:40:33.391Z,38.88
2023-03-12T12:43:16.108Z,38.78
2023-03-12T12:45:47.911Z,38.92
2023-03-12T12:48:19.292Z,38.93
2023-03-12T12:50:48.859Z,38.91
2023-03-12T12:53:22.896Z,38.87
2023-03-12T12:56:01.953Z,38.94
2023-03-12T12:58:54.028Z,38.92
2023-03-12T13:01:22.623Z,39.11
2023-03-12T13:03:51.230Z,39.11
2023-03-12T13:06:19.205Z,39.14
2023-03-12T13:09:15.369Z,39.00
2023-03-12T13:11:46.584Z,39.06
2023-03-12T13:14:35.700Z,39.06
2023-03-12T13:17:25.446Z,39.09
2023-03-12T13:20:01.443Z,39.10
2023-03-12T13:22:56.693Z,39.13
2023-03-12T13:25:36.316Z,39.16
2023-03-12T13:28:32.875Z,39.29
2023-03-12T13:31:03.551Z,38.92
2023-03-12T13:33:41.175Z,39.32
2023-03-12T13:36:23.807Z,39.08
2023-03-12T13:38:58.898Z,39.26
2023-03-12T13:41:38.008Z,39.17
2023-03-12T13:44:33.093Z,39.04
2023-03-12T13:47:04.964Z,39.14
2023-03-12T13:49:40.989Z,39.26
2023-03-12T13:52:22.224Z,39.11
2023-03-12T13:54:58.682Z,39.15
2023-03-12T13:57:37.343Z,39.14
2023-03-12T14:00:15.834Z,39.14
2023-03-12T14:02:51.016Z,38.95
2023-03-12T14:05:21.259Z,39.15
2023-03-12T14:08:18.922Z,39.07
2023-03-12T14:11:01.531Z,38.94
2023-03-12T14:13:45.758Z,39.09
2023-03-12T14:16:24.560Z,39.13
2023-03-12T14:18:56.948Z,39.10
2023-03-12T14:21:31.642Z,38.96
2023-03-12T14:24:01.480Z,38.73
2023-03-12T14:26:33.613Z,38.82
2023-03-12T14:29:07.851Z,38.87
2023-03-12T14:31:37.661Z,38.83
2023-03-12T14:34:11.122Z,38.99
2023-03-12T14:36:42.577Z,38.77
2023-03-12T14:39:20.107Z,38.80
2023-03-12T14:41:55.000Z,38.72
2023-03-12T14:44:26.504Z,38.80
2023-03-12T14:46:59.671Z,38.86
2023-03-12T14:49:29.923Z,38.65
2023-03-12T14:52:00.850Z,38.91
2023-03-12T14:54:29.785Z,39.32
2023-03-12T14:56:57.786Z,39.23
2023-03-12T14:59:29.206Z,39.04
2023-03-12T15:02:02.990Z,39.32
2023-03-12T15:04:35.776Z,39.68
2023-03-12T15:07:06.856Z,39.47
2023-03-12T15:09:37.423Z,39.42
2023-03-12T15:12:08.393Z,39.56
2023-03-12T15:14:43.192Z,39.47
2023-03-12T15:17:17.154Z,39.47
2023-03-12T15:19:50.663Z,39.49
2023-03-12T15:22:22.093Z,39.23
2023-03-12T15:24:50.493Z,39.34
2023-03-12T15:27:31.221Z,39.34
2023-03-12T15:30:00.871Z,39.28
2023-03-12T15:32:31.781Z,39.29
2023-03-12T15:35:14.356Z,39.34
2023-03-12T15:37:53.386Z,39.25
2023-03-12T15:40:24.651Z,39.13
2023-03-12T15:42:57.369Z,39.13
2023-03-12T15:45:28.439Z,39.28
2023-03-12T15:47:57.059Z,39.23
2023-03-12T15:50:31.190Z,39.25
2023-03-12T15:53:01.033Z,39.27
2023-03-12T15:55:31.191Z,39.45
2023-03-12T15:58:00.796Z,39.35
2023-03-12T16:00:30.696Z,39.41
2023-03-12T16:03:00.432Z,39.49
2023-03-12T16:05:33.108Z,39.22
2023-03-12T16:08:03.302Z,39.50
2023-03-12T16:10:40.319Z,39.65
2023-03-12T16:13:11.515Z,39.76
2023-03-12T16:15:40.150Z,39.76
2023-03-12T16:18:13.661Z,39.80
2023-03-12T16:20:42.987Z,40.70
2023-03-12T16:23:11.104Z,40.82
2023-03-12T16:25:39.646Z,41.45
2023-03-12T16:28:15.233Z,40.70
2023-03-12T16:30:43.289Z,40.48
2023-03-12T16:33:15.825Z,40.61
2023-03-12T16:35:45.440Z,40.78
2023-03-12T16:38:15.271Z,41.33
2023-03-12T16:40:46.171Z,40.97
2023-03-12T16:43:18.659Z,41.06
2023-03-12T16:45:48.331Z,41.16
2023-03-12T16:48:17.754Z,41.53
2023-03-12T16:50:51.677Z,41.69
2023-03-12T16:53:20.154Z,41.71
2023-03-12T16:55:50.934Z,41.57
2023-03-12T16:58:21.079Z,41.72
2023-03-12T17:00:50.474Z,42.86
2023-03-12T17:03:28.865Z,43.61
2023-03-12T17:05:58.758Z,43.22
2023-03-12T17:08:26.930Z,43.69
2023-03-12T17:10:56.452Z,43.98
2023-03-12T17:13:26.928Z,44.08
2023-03-12T17:15:55.665Z,43.92
2023-03-12T17:18:23.991Z,44.37
2023-03-12T17:20:52.226Z,44.77
2023-03-12T17:23:22.676Z,44.45
2023-03-12T17:25:50.599Z,44.43
2023-03-12T17:28:18.569Z,44.66
2023-03-12T17:30:47.438Z,44.67
2023-03-12T17:33:17.915Z,44.52
2023-03-12T17:35:46.241Z,44.97
2023-03-12T17:38:14.467Z,44.93
2023-03-12T17:40:45.511Z,44.69
2023-03-12T17:43:13.486Z,44.42
2023-03-12T17:45:42.171Z,44.62
2023-03-12T17:48:10.103Z,44.89
2023-03-12T17:50:38.546Z,44.24
2023-03-12T17:53:06.656Z,44.52
2023-03-12T17:55:35.483Z,44.57
2023-03-12T17:58:06.127Z,44.48
2023-03-12T18:00:34.468Z,44.22
2023-03-12T18:03:03.703Z,44.14
2023-03-12T18:05:31.700Z,44.07
2023-03-12T18:07:59.681Z,43.89
2023-03-12T18:10:27.677Z,44.04
2023-03-12T18:12:55.649Z,43.87
2023-03-12T18:15:24.932Z,43.79
2023-03-12T18:17:56.499Z,43.85
2023-03-12T18:20:36.197Z,43.73
2023-03-12T18:23:06.378Z,43.81
2023-03-12T18:25:34.356Z,43.73
2023-03-12T18:28:02.333Z,43.81
2023-03-12T18:30:31.720Z,43.73
2023-03-12T18:33:02.249Z,43.82
2023-03-12T18:35:30.565Z,43.65
2023-03-12T18:37:58.954Z,43.69
2023-03-12T18:40:30.137Z,43.70
2023-03-12T18:42:59.113Z,43.58
2023-03-12T18:45:31.567Z,43.63
2023-03-12T18:47:59.641Z,43.40
2023-03-12T18:50:27.918Z,43.77
2023-03-12T18:52:55.880Z,43.86
2023-03-12T18:55:24.022Z,44.46
2023-03-12T18:57:52.065Z,44.78
2023-03-12T19:00:20.502Z,44.61
2023-03-12T19:02:49.879Z,44.54
2023-03-12T19:05:20.917Z,44.44
2023-03-12T19:07:49.001Z,44.84
2023-03-12T19:10:19.507Z,44.49
2023-03-12T19:12:53.250Z,44.30
2023-03-12T19:15:22.518Z,44.45
2023-03-12T19:17:52.654Z,44.53
2023-03-12T19:20:21.073Z,44.55
2023-03-12T19:22:49.134Z,44.56
2023-03-12T19:25:20.450Z,44.64
2023-03-12T19:27:48.801Z,44.70
2023-03-12T19:30:19.797Z,44.60
2023-03-12T19:32:47.918Z,44.65
2023-03-12T19:35:17.317Z,44.58
2023-03-12T19:37:45.352Z,44.64
2023-03-12T19:40:14.325Z,44.61
2023-03-12T19:42:42.323Z,44.51
2023-03-12T19:45:11.419Z,44.51
2023-03-12T19:47:39.420Z,44.48
2023-03-12T19:50:08.392Z,44.41
2023-03-12T19:52:38.078Z,44.67
2023-03-12T19:55:06.807Z,44.47
2023-03-12T19:57:34.934Z,44.58
2023-03-12T20:00:06.808Z,44.32
2023-03-12T20:02:34.926Z,44.43
2023-03-12T20:05:03.140Z,44.26
2023-03-12T20:07:31.175Z,44.23
2023-03-12T20:10:00.537Z,44.40
2023-03-12T20:12:28.829Z,44.48
2023-03-12T20:14:56.875Z,44.37
2023-03-12T20:17:24.990Z,44.34
2023-03-12T20:19:53.116Z,44.36
2023-03-12T20:22:22.108Z,44.45
2023-03-12T20:24:50.138Z,44.35
2023-03-12T20:27:19.515Z,44.32
2023-03-12T20:29:50.892Z,44.26
2023-03-12T20:32:19.456Z,44.46
2023-03-12T20:34:47.386Z,44.46
2023-03-12T20:37:19.362Z,44.53
2023-03-12T20:39:47.379Z,44.51
2023-03-12T20:42:15.334Z,44.50
2023-03-12T20:44:44.626Z,44.57
2023-03-12T20:47:12.483Z,44.57
2023-03-12T20:49:40.468Z,44.57
2023-03-12T20:52:08.396Z,44.59
2023-03-12T20:54:36.430Z,44.62
2023-03-12T20:57:04.464Z,44.65
2023-03-12T20:59:35.460Z,44.64
2023-03-12T21:02:04.856Z,44.84
2023-03-12T21:04:33.052Z,42.59
2023-03-12T21:07:03.570Z,43.72
2023-03-12T21:09:31.713Z,44.28
2023-03-12T21:11:59.752Z,44.60
2023-03-12T21:14:27.753Z,44.76
2023-03-12T21:16:56.260Z,43.76
2023-03-12T21:19:26.975Z,44.32
2023-03-12T21:21:54.910Z,44.61
2023-03-12T21:24:27.468Z,44.38
2023-03-12T21:26:58.131Z,44.36
2023-03-12T21:29:28.990Z,44.44
2023-03-12T21:31:57.451Z,44.33
2023-03-12T21:34:30.543Z,44.44
2023-03-12T21:36:58.581Z,44.64
2023-03-12T21:39:29.236Z,44.42
2023-03-12T21:41:57.116Z,44.52
2023-03-12T21:44:25.150Z,44.56
2023-03-12T21:46:53.170Z,44.58
2023-03-12T21:49:21.227Z,44.64
2023-03-12T21:51:51.933Z,44.78
2023-03-12T21:54:22.460Z,44.81
2023-03-12T21:56:50.354Z,44.77
2023-03-12T21:59:18.409Z,44.86
2023-03-12T22:01:46.389Z,44.75
2023-03-12T22:04:15.857Z,44.83
2023-03-12T22:06:43.807Z,45.06
2023-03-12T22:09:13.053Z,45.13
2023-03-12T22:11:40.948Z,45.19
2023-03-12T22:14:08.924Z,45.22
2023-03-12T22:16:36.933Z,45.16
2023-03-12T22:19:04.946Z,45.24
2023-03-12T22:21:32.914Z,45.27
2023-03-12T22:24:02.363Z,45.18
2023-03-12T22:26:32.191Z,45.08
2023-03-12T22:29:01.250Z,45.23
2023-03-12T22:31:30.651Z,45.09
2023-03-12T22:33:58.756Z,45.28
2023-03-12T22:36:26.740Z,45.28
2023-03-12T22:38:54.728Z,45.21
2023-03-12T22:41:24.710Z,45.26
2023-03-12T22:43:55.807Z,44.96
2023-03-12T22:46:25.909Z,45.42
2023-03-12T22:48:56.242Z,45.35
2023-03-12T22:51:24.971Z,45.58
2023-03-12T22:53:53.242Z,45.65
2023-03-12T22:56:21.857Z,46.08
2023-03-12T22:58:50.112Z,46.14
2023-03-12T23:01:21.067Z,46.41
2023-03-12T23:03:49.320Z,46.66
2023-03-12T23:06:19.581Z,46.33
2023-03-12T23:08:48.127Z,46.34
2023-03-12T23:11:17.570Z,46.23
2023-03-12T23:13:46.854Z,46.13
2023-03-12T23:16:18.691Z,46.14
2023-03-12T23:18:48.413Z,46.02
2023-03-12T23:21:18.537Z,46.04
2023-03-12T23:23:48.716Z,46.01
2023-03-12T23:26:18.973Z,46.02
2023-03-12T23:28:47.568Z,45.99
2023-03-12T23:31:16.954Z,45.67
2023-03-12T23:33:45.574Z,45.39
2023-03-12T23:36:17.088Z,45.41
2023-03-12T23:38:45.886Z,45.45
2023-03-12T23:41:16.685Z,45.48
2023-03-12T23:43:45.356Z,45.31
2023-03-12T23:46:14.317Z,45.24
2023-03-12T23:48:42.501Z,45.16
2023-03-12T23:51:13.024Z,44.90
2023-03-12T23:53:44.267Z,45.07
2023-03-12T23:56:15.111Z,44.98
2023-03-12T23:58:44.020Z,44.92
